createdAt,value
2018-08-28T00:00:03.390Z,40.03
2018-08-28T00:00:42.025Z,42.43
2018-08-28T00:01:26.436Z,38.10
2018-08-28T00:02:04.933Z,41.73
2018-08-28T00:02:43.239Z,47.40
2018-08-28T00:03:21.433Z,43.53
2018-08-28T00:03:59.474Z,32.30
2018-08-28T00:04:37.433Z,39.53
2018-08-28T00:05:15.555Z,39.30
2018-08-28T00:05:53.509Z,40.50
2018-08-28T00:06:32.211Z,47.80
2018-08-28T00:07:10.136Z,47.70
2018-08-28T00:07:48.008Z,41.50
2018-08-28T00:08:25.929Z,37.93
2018-08-28T00:09:03.906Z,45.30
2018-08-28T00:09:42.104Z,29.73
2018-08-28T00:10:19.976Z,34.13
2018-08-28T00:10:57.815Z,45.03
2018-08-28T00:11:35.650Z,41.40
2018-08-28T00:12:13.483Z,36.40
2018-08-28T00:12:51.745Z,40.83
2018-08-28T00:13:29.704Z,39.30
2018-08-28T00:14:07.643Z,47.90
2018-08-28T00:14:46.090Z,38.03
2018-08-28T00:15:24.053Z,34.67
2018-08-28T00:16:01.993Z,33.83
2018-08-28T00:16:39.964Z,46.60
2018-08-28T00:17:18.065Z,34.97
2018-08-28T00:17:56.043Z,52.53
2018-08-28T00:18:33.979Z,37.80
2018-08-28T00:19:11.998Z,39.87
2018-08-28T00:19:49.848Z,37.60
2018-08-28T00:20:27.936Z,40.20
2018-08-28T00:21:05.955Z,31.40
2018-08-28T00:21:43.951Z,37.43
2018-08-28T00:22:21.858Z,32.03
2018-08-28T00:22:59.803Z,37.10
2018-08-28T00:23:37.753Z,41.87
2018-08-28T00:24:16.600Z,34.27
2018-08-28T00:24:54.509Z,44.40
2018-08-28T00:25:32.370Z,34.00
2018-08-28T00:26:10.292Z,35.07
2018-08-28T00:26:48.309Z,32.97
2018-08-28T00:27:26.344Z,43.50
2018-08-28T00:28:04.408Z,36.43
2018-08-28T00:28:42.307Z,35.77
2018-08-28T00:29:20.246Z,40.03
2018-08-28T00:29:58.206Z,38.50
2018-08-28T00:30:36.070Z,30.00
2018-08-28T00:31:14.002Z,39.87
2018-08-28T00:31:52.034Z,42.73
2018-08-28T00:32:29.964Z,30.37
2018-08-28T00:33:07.782Z,35.77
2018-08-28T00:33:45.803Z,39.93
2018-08-28T00:34:23.724Z,34.57
2018-08-28T00:35:01.864Z,41.00
2018-08-28T00:35:40.360Z,35.27
2018-08-28T00:36:18.421Z,33.93
2018-08-28T00:36:56.336Z,34.70
2018-08-28T00:37:34.279Z,32.93
2018-08-28T00:38:12.254Z,35.00
2018-08-28T00:38:50.246Z,35.43
2018-08-28T00:39:28.189Z,30.30
2018-08-28T00:40:06.155Z,38.97
2018-08-28T00:40:44.051Z,39.20
2018-08-28T00:41:22.053Z,34.63
2018-08-28T00:42:00.018Z,31.93
2018-08-28T00:42:37.951Z,30.53
2018-08-28T00:43:15.849Z,32.77
2018-08-28T00:43:53.918Z,29.90
2018-08-28T00:44:31.838Z,44.00
2018-08-28T00:45:09.891Z,33.03
2018-08-28T00:45:47.836Z,36.17
2018-08-28T00:46:25.808Z,37.40
2018-08-28T00:47:03.727Z,33.87
2018-08-28T00:47:41.575Z,31.23
2018-08-28T00:48:20.401Z,29.10
2018-08-28T00:48:58.436Z,41.13
2018-08-28T00:49:36.413Z,45.73
2018-08-28T00:50:14.567Z,41.43
2018-08-28T00:50:52.491Z,31.53
2018-08-28T00:51:30.446Z,37.30
2018-08-28T00:52:08.559Z,37.20
2018-08-28T00:52:46.677Z,32.60
2018-08-28T00:53:24.900Z,32.03
2018-08-28T00:54:03.167Z,31.13
2018-08-28T00:54:41.353Z,35.30
2018-08-28T00:55:19.624Z,28.03
2018-08-28T00:55:57.832Z,28.80
2018-08-28T00:56:36.162Z,36.30
2018-08-28T00:57:15.668Z,28.20
2018-08-28T00:57:54.307Z,29.23
2018-08-28T00:58:32.788Z,29.00
2018-08-28T00:59:11.354Z,40.20
2018-08-28T00:59:51.080Z,36.70
2018-08-28T01:00:29.640Z,30.90
2018-08-28T01:01:08.388Z,31.10
2018-08-28T01:01:47.175Z,33.10
2018-08-28T01:02:26.134Z,32.13
2018-08-28T01:03:04.745Z,27.77
2018-08-28T01:03:43.675Z,29.03
2018-08-28T01:04:22.587Z,30.07
2018-08-28T01:05:01.120Z,32.13
2018-08-28T01:05:39.691Z,27.80
2018-08-28T01:06:18.419Z,34.87
2018-08-28T01:06:57.899Z,35.30
2018-08-28T01:07:37.498Z,39.23
2018-08-28T01:08:16.983Z,35.87
2018-08-28T01:08:56.695Z,39.23
2018-08-28T01:09:35.205Z,37.30
2018-08-28T01:10:15.213Z,29.37
2018-08-28T01:10:53.943Z,33.93
2018-08-28T01:11:32.604Z,33.23
2018-08-28T01:12:11.379Z,30.00
2018-08-28T01:12:49.978Z,34.00
2018-08-28T01:13:28.558Z,27.90
2018-08-28T01:14:07.163Z,31.30
2018-08-28T01:14:46.087Z,32.03
2018-08-28T01:15:25.157Z,37.80
2018-08-28T01:16:03.888Z,32.90
2018-08-28T01:16:42.507Z,30.43
2018-08-28T01:17:21.106Z,25.23
2018-08-28T01:17:59.762Z,29.40
2018-08-28T01:18:38.251Z,26.23
2018-08-28T01:19:17.063Z,34.10
2018-08-28T01:19:55.679Z,31.93
2018-08-28T01:20:34.499Z,31.53
2018-08-28T01:21:13.224Z,31.70
2018-08-28T01:21:51.818Z,32.07
2018-08-28T01:22:30.423Z,32.40
2018-08-28T01:23:09.043Z,31.23
2018-08-28T01:23:47.692Z,25.50
2018-08-28T01:24:26.502Z,29.23
2018-08-28T01:25:05.026Z,33.83
2018-08-28T01:25:43.313Z,33.60
2018-08-28T01:26:21.990Z,34.17
2018-08-28T01:27:01.030Z,42.43
2018-08-28T01:27:42.141Z,25.40
2018-08-28T01:28:20.205Z,39.00
2018-08-28T01:28:58.221Z,27.73
2018-08-28T01:29:36.072Z,33.80
2018-08-28T01:30:14.081Z,34.40
2018-08-28T01:30:51.969Z,31.13
2018-08-28T01:31:29.842Z,29.50
2018-08-28T01:32:07.748Z,41.23
2018-08-28T01:32:45.709Z,37.50
2018-08-28T01:33:23.716Z,39.53
2018-08-28T01:34:01.748Z,45.27
2018-08-28T01:34:39.643Z,35.33
2018-08-28T01:35:17.602Z,35.60
2018-08-28T01:35:55.742Z,32.10
2018-08-28T01:36:33.665Z,31.67
2018-08-28T01:37:11.708Z,40.43
2018-08-28T01:37:49.776Z,31.50
2018-08-28T01:38:27.664Z,35.07
2018-08-28T01:39:06.035Z,36.70
2018-08-28T01:39:43.865Z,37.00
2018-08-28T01:40:21.872Z,41.47
2018-08-28T01:41:00.153Z,35.70
2018-08-28T01:41:38.156Z,42.73
2018-08-28T01:42:21.538Z,35.65
2018-08-28T01:43:00.579Z,40.23
2018-08-28T01:43:38.522Z,35.93
2018-08-28T01:44:16.405Z,27.00
2018-08-28T01:44:54.432Z,30.73
2018-08-28T01:45:32.601Z,36.30
2018-08-28T01:46:10.448Z,33.97
2018-08-28T01:46:48.454Z,36.27
2018-08-28T01:47:26.460Z,38.07
2018-08-28T01:48:04.412Z,33.77
2018-08-28T01:48:42.182Z,31.23
2018-08-28T01:49:20.236Z,30.87
2018-08-28T01:49:59.307Z,26.87
2018-08-28T01:50:37.398Z,35.63
2018-08-28T01:51:15.381Z,32.63
2018-08-28T01:51:53.208Z,44.20
2018-08-28T01:52:32.219Z,26.20
2018-08-28T01:53:10.285Z,27.03
2018-08-28T01:53:48.373Z,32.53
2018-08-28T01:54:27.116Z,31.80
2018-08-28T01:55:05.787Z,31.77
2018-08-28T01:55:43.855Z,28.03
2018-08-28T01:56:21.907Z,32.50
2018-08-28T01:56:59.821Z,28.87
2018-08-28T01:57:37.701Z,36.07
2018-08-28T02:02:55.760Z,26.87
2018-08-28T02:04:43.814Z,27.03
2018-08-28T02:05:21.671Z,31.37
2018-08-28T02:05:59.572Z,37.60
2018-08-28T02:06:37.642Z,36.33
2018-08-28T02:07:15.625Z,27.07
2018-08-28T02:07:53.625Z,35.33
2018-08-28T02:08:31.625Z,26.90
2018-08-28T02:09:10.916Z,24.53
2018-08-28T02:09:48.821Z,35.83
2018-08-28T02:10:26.749Z,30.30
2018-08-28T02:11:04.621Z,30.90
2018-08-28T02:11:42.582Z,29.30
2018-08-28T02:12:21.426Z,26.40
2018-08-28T02:13:00.088Z,27.50
2018-08-28T02:13:37.992Z,27.13
2018-08-28T02:14:16.928Z,28.65
2018-08-28T02:14:54.809Z,25.30
2018-08-28T02:15:32.780Z,35.23
2018-08-28T02:16:10.743Z,26.33
2018-08-28T02:16:48.739Z,35.13
2018-08-28T02:17:26.981Z,30.40
2018-08-28T02:18:04.883Z,29.37
2018-08-28T02:18:42.916Z,23.47
2018-08-28T02:19:20.846Z,33.70
2018-08-28T02:19:58.756Z,24.30
2018-08-28T02:20:36.751Z,33.10
2018-08-28T02:21:15.399Z,27.33
2018-08-28T02:21:53.452Z,31.67
2018-08-28T02:22:31.588Z,31.43
2018-08-28T02:23:09.485Z,31.33
2018-08-28T02:23:47.448Z,22.77
2018-08-28T02:24:25.432Z,30.73
2018-08-28T02:25:03.224Z,35.70
2018-08-28T02:25:41.109Z,27.40
2018-08-28T02:26:19.269Z,28.00
2018-08-28T02:27:01.459Z,35.07
2018-08-28T02:27:39.544Z,27.07
2018-08-28T02:28:17.573Z,25.97
2018-08-28T02:28:55.502Z,24.77
2018-08-28T02:29:33.582Z,21.93
2018-08-28T02:30:11.543Z,26.90
2018-08-28T02:30:49.547Z,26.50
2018-08-28T02:31:27.487Z,32.70
2018-08-28T02:32:06.550Z,35.17
2018-08-28T02:32:44.480Z,32.53
2018-08-28T02:33:22.501Z,29.43
2018-08-28T02:34:01.384Z,29.90
2018-08-28T02:34:39.426Z,29.13
2018-08-28T02:35:17.298Z,30.70
2018-08-28T02:35:56.182Z,28.67
2018-08-28T02:36:34.115Z,27.53
2018-08-28T02:37:12.058Z,34.40
2018-08-28T02:37:50.053Z,32.40
2018-08-28T02:38:27.856Z,36.50
2018-08-28T02:39:06.652Z,27.03
2018-08-28T02:39:44.625Z,34.30
2018-08-28T02:40:22.531Z,29.47
2018-08-28T02:41:00.486Z,33.57
2018-08-28T02:41:38.373Z,30.47
2018-08-28T02:42:16.685Z,27.05
2018-08-28T02:42:54.752Z,32.37
2018-08-28T02:43:32.652Z,35.83
2018-08-28T02:44:10.634Z,28.90
2018-08-28T02:44:48.498Z,30.70
2018-08-28T02:45:26.369Z,33.23
2018-08-28T02:46:05.523Z,34.67
2018-08-28T02:46:43.363Z,31.57
2018-08-28T02:47:21.384Z,31.63
2018-08-28T02:47:59.331Z,25.77
2018-08-28T02:48:38.018Z,30.10
2018-08-28T02:49:15.888Z,29.80
2018-08-28T02:49:53.743Z,33.50
2018-08-28T02:50:31.607Z,25.60
2018-08-28T02:51:09.476Z,28.67
2018-08-28T02:51:47.573Z,25.40
2018-08-28T02:52:25.510Z,28.53
2018-08-28T02:53:03.359Z,25.53
2018-08-28T02:53:41.335Z,27.77
2018-08-28T02:54:20.071Z,28.07
2018-08-28T02:54:57.989Z,26.80
2018-08-28T02:55:35.891Z,34.17
2018-08-28T02:56:13.796Z,26.70
2018-08-28T02:56:52.606Z,33.83
2018-08-28T02:57:30.625Z,33.90
2018-08-28T02:58:08.558Z,38.43
2018-08-28T02:58:46.483Z,27.37
2018-08-28T02:59:26.042Z,33.20
2018-08-28T03:00:04.102Z,39.83
2018-08-28T03:00:42.048Z,38.20
2018-08-28T03:01:19.964Z,33.40
2018-08-28T03:01:58.791Z,44.93
2018-08-28T03:02:37.031Z,30.10
2018-08-28T03:03:14.880Z,32.67
2018-08-28T03:03:53.270Z,31.17
2018-08-28T03:04:31.727Z,30.73
2018-08-28T03:05:09.709Z,32.47
2018-08-28T03:05:47.543Z,37.17
2018-08-28T03:06:26.320Z,36.43
2018-08-28T03:07:04.313Z,33.07
2018-08-28T03:07:42.297Z,38.13
2018-08-28T03:08:20.431Z,36.47
2018-08-28T03:08:58.657Z,28.93
2018-08-28T03:09:36.506Z,41.60
2018-08-28T03:10:14.609Z,38.80
2018-08-28T03:10:53.816Z,35.17
2018-08-28T03:11:32.796Z,31.83
2018-08-28T03:12:10.674Z,33.43
2018-08-28T03:12:48.497Z,37.30
2018-08-28T03:13:26.721Z,35.73
2018-08-28T03:14:04.684Z,41.40
2018-08-28T03:14:42.628Z,36.37
2018-08-28T03:15:20.480Z,36.73
2018-08-28T03:15:58.537Z,32.27
2018-08-28T03:16:36.661Z,46.67
2018-08-28T03:17:14.729Z,40.17
2018-08-28T03:17:52.560Z,35.80
2018-08-28T03:18:30.770Z,44.40
2018-08-28T03:19:09.724Z,40.73
2018-08-28T03:19:47.565Z,37.33
2018-08-28T03:20:25.454Z,38.10
2018-08-28T03:21:03.777Z,41.17
2018-08-28T03:21:41.934Z,37.33
2018-08-28T03:22:19.987Z,44.80
2018-08-28T03:22:57.929Z,36.30
2018-08-28T03:23:35.853Z,36.17
2018-08-28T03:24:13.770Z,43.93
2018-08-28T03:24:51.718Z,36.03
2018-08-28T03:25:29.574Z,37.23
2018-08-28T03:26:07.428Z,42.60
2018-08-28T03:26:45.660Z,40.30
2018-08-28T03:27:23.491Z,33.23
2018-08-28T03:28:01.393Z,40.43
2018-08-28T03:28:39.815Z,44.50
2018-08-28T03:29:17.846Z,49.03
2018-08-28T03:29:55.800Z,49.87
2018-08-28T03:30:33.788Z,44.30
2018-08-28T03:31:12.689Z,47.67
2018-08-28T03:31:51.704Z,48.60
2018-08-28T03:32:29.612Z,39.10
2018-08-28T03:33:07.749Z,44.37
2018-08-28T03:33:45.667Z,53.27
2018-08-28T03:34:23.567Z,50.37
2018-08-28T03:35:01.499Z,46.30
2018-08-28T03:35:39.464Z,41.27
2018-08-28T03:36:17.537Z,41.63
2018-08-28T03:36:55.735Z,60.87
2018-08-28T03:37:34.700Z,55.13
2018-08-28T03:38:12.768Z,65.63
2018-08-28T03:38:51.022Z,50.93
2018-08-28T03:39:29.065Z,47.73
2018-08-28T03:40:07.046Z,50.90
2018-08-28T03:40:45.101Z,48.20
2018-08-28T03:41:23.119Z,45.10
2018-08-28T03:42:02.467Z,42.47
2018-08-28T03:42:40.455Z,45.07
2018-08-28T03:43:18.420Z,53.70
2018-08-28T03:43:56.364Z,44.87
2018-08-28T03:44:39.904Z,39.60
2018-08-28T03:45:18.976Z,40.77
2018-08-28T03:45:57.006Z,46.40
2018-08-28T03:46:35.027Z,46.20
2018-08-28T03:47:12.885Z,49.27
2018-08-28T03:47:50.759Z,47.67
2018-08-28T03:48:28.728Z,55.93
2018-08-28T03:49:06.623Z,57.90
2018-08-28T03:49:44.480Z,56.97
2018-08-28T03:50:22.688Z,68.40
2018-08-28T03:51:00.629Z,54.17
2018-08-28T03:51:38.475Z,64.13
2018-08-28T03:52:16.938Z,52.00
2018-08-28T03:52:54.952Z,55.17
2018-08-28T03:53:32.817Z,48.73
2018-08-28T03:54:10.974Z,51.60
2018-08-28T03:54:48.989Z,46.33
2018-08-28T03:55:27.181Z,71.23
2018-08-28T03:56:05.194Z,51.73
2018-08-28T03:56:43.152Z,48.83
2018-08-28T03:57:21.016Z,51.27
2018-08-28T03:57:59.173Z,50.13
2018-08-28T03:58:37.012Z,55.73
2018-08-28T03:59:15.228Z,44.07
2018-08-28T03:59:53.127Z,56.30
2018-08-28T04:00:31.276Z,50.60
2018-08-28T04:01:09.238Z,43.27
2018-08-28T04:01:47.322Z,52.30
2018-08-28T04:02:25.914Z,48.53
2018-08-28T04:03:05.233Z,52.93
2018-08-28T04:03:43.298Z,55.00
2018-08-28T04:04:24.287Z,47.53
2018-08-28T04:05:05.238Z,48.70
2018-08-28T04:05:44.142Z,50.40
2018-08-28T04:06:22.222Z,57.63
2018-08-28T04:07:00.128Z,50.30
2018-08-28T04:07:38.760Z,47.83
2018-08-28T04:08:16.631Z,51.20
2018-08-28T04:08:54.664Z,48.90
2018-08-28T04:09:32.697Z,49.90
2018-08-28T04:10:10.711Z,46.53
2018-08-28T04:10:48.664Z,45.73
2018-08-28T04:12:37.043Z,55.80
2018-08-28T04:13:14.810Z,47.50
2018-08-28T04:13:52.836Z,48.03
2018-08-28T04:14:30.870Z,45.50
2018-08-28T04:15:08.959Z,44.60
2018-08-28T04:15:46.805Z,50.73
2018-08-28T04:16:24.631Z,42.37
2018-08-28T04:17:02.669Z,45.43
2018-08-28T04:17:50.415Z,47.50
2018-08-28T04:18:28.234Z,46.87
2018-08-28T04:19:09.188Z,43.60
2018-08-28T04:19:47.159Z,47.17
2018-08-28T04:20:25.249Z,45.30
2018-08-28T04:21:03.420Z,45.80
2018-08-28T04:21:42.137Z,51.80
2018-08-28T04:22:19.993Z,59.77
2018-08-28T04:22:57.894Z,51.17
2018-08-28T04:23:35.792Z,55.10
2018-08-28T04:24:14.122Z,51.00
2018-08-28T04:24:57.547Z,52.50
2018-08-28T04:25:35.448Z,46.53
2018-08-28T04:26:13.303Z,56.70
2018-08-28T04:26:51.294Z,47.57
2018-08-28T04:27:29.263Z,54.70
2018-08-28T04:28:07.315Z,50.17
2018-08-28T04:28:45.197Z,54.60
2018-08-28T04:29:23.243Z,47.63
2018-08-28T04:30:01.174Z,45.90
2018-08-28T04:30:39.273Z,43.67
2018-08-28T04:31:17.278Z,51.83
2018-08-28T04:31:55.144Z,50.03
2018-08-28T04:32:33.197Z,58.93
2018-08-28T04:33:11.167Z,49.70
2018-08-28T04:33:49.239Z,59.20
2018-08-28T04:34:27.082Z,62.10
2018-08-28T04:35:05.181Z,59.00
2018-08-28T04:35:43.070Z,52.60
2018-08-28T04:36:20.979Z,53.93
2018-08-28T04:36:58.948Z,53.43
2018-08-28T04:37:36.824Z,57.73
2018-08-28T04:38:14.818Z,60.07
2018-08-28T04:38:52.648Z,54.47
2018-08-28T04:39:30.555Z,49.83
2018-08-28T04:40:09.034Z,56.00
2018-08-28T04:40:46.988Z,60.77
2018-08-28T04:41:24.932Z,53.20
2018-08-28T04:42:02.869Z,59.23
2018-08-28T04:42:43.680Z,58.70
2018-08-28T04:43:21.866Z,60.43
2018-08-28T04:43:59.797Z,52.67
2018-08-28T04:44:37.789Z,51.63
2018-08-28T04:45:15.629Z,55.10
2018-08-28T04:45:53.616Z,64.07
2018-08-28T04:46:31.606Z,68.40
2018-08-28T04:47:09.666Z,62.87
2018-08-28T04:47:47.632Z,60.50
2018-08-28T04:48:25.591Z,70.53
2018-08-28T04:49:03.571Z,67.83
2018-08-28T04:49:41.552Z,71.80
2018-08-28T04:50:19.415Z,58.90
2018-08-28T04:50:57.399Z,74.83
2018-08-28T04:51:35.470Z,53.87
2018-08-28T04:52:13.365Z,54.37
2018-08-28T04:52:52.019Z,54.23
2018-08-28T04:53:30.041Z,56.33
2018-08-28T04:54:08.710Z,61.13
2018-08-28T04:54:46.766Z,55.63
2018-08-28T04:55:24.797Z,69.83
2018-08-28T04:56:02.605Z,52.87
2018-08-28T04:56:40.609Z,58.80
2018-08-28T04:57:18.635Z,63.00
2018-08-28T04:57:57.213Z,53.43
2018-08-28T04:58:36.281Z,60.83
2018-08-28T04:59:14.271Z,61.97
2018-08-28T04:59:52.192Z,61.47
2018-08-28T05:00:31.210Z,51.77
2018-08-28T05:01:09.193Z,61.43
2018-08-28T05:01:47.146Z,58.40
2018-08-28T05:02:25.361Z,55.83
2018-08-28T05:03:03.298Z,59.50
2018-08-28T05:03:41.222Z,68.00
2018-08-28T05:04:19.171Z,66.53
2018-08-28T05:04:57.020Z,60.80
2018-08-28T05:05:34.917Z,58.00
2018-08-28T05:06:12.836Z,61.73
2018-08-28T05:06:50.741Z,55.80
2018-08-28T05:07:28.683Z,54.00
2018-08-28T05:08:06.717Z,56.53
2018-08-28T05:08:44.622Z,56.53
2018-08-28T05:09:22.595Z,57.17
2018-08-28T05:10:00.509Z,55.43
2018-08-28T05:10:38.480Z,62.63
2018-08-28T05:11:16.345Z,56.73
2018-08-28T05:11:54.513Z,62.03
2018-08-28T05:12:32.601Z,60.37
2018-08-28T05:13:11.615Z,62.07
2018-08-28T05:13:49.574Z,63.47
2018-08-28T05:14:27.553Z,58.53
2018-08-28T05:15:05.400Z,58.20
2018-08-28T05:15:43.328Z,55.50
2018-08-28T05:16:21.366Z,60.40
2018-08-28T05:16:59.353Z,56.33
2018-08-28T05:17:37.650Z,56.97
2018-08-28T05:18:16.747Z,67.12
2018-08-28T05:18:54.742Z,60.97
2018-08-28T05:19:32.711Z,57.63
2018-08-28T05:20:10.662Z,57.07
2018-08-28T05:20:48.690Z,63.07
2018-08-28T05:21:26.602Z,58.80
2018-08-28T05:22:05.273Z,62.23
2018-08-28T05:22:43.178Z,68.27
2018-08-28T05:23:21.116Z,70.70
2018-08-28T05:23:58.996Z,64.70
2018-08-28T05:24:37.045Z,60.10
2018-08-28T05:25:15.089Z,56.10
2018-08-28T05:25:53.025Z,62.83
2018-08-28T05:26:30.998Z,60.03
2018-08-28T05:27:08.982Z,53.23
2018-08-28T05:27:47.111Z,60.23
2018-08-28T05:28:25.284Z,66.93
2018-08-28T05:29:03.273Z,58.57
2018-08-28T05:29:41.321Z,57.80
2018-08-28T05:30:19.364Z,65.23
2018-08-28T05:30:57.422Z,66.93
2018-08-28T05:31:35.412Z,58.87
2018-08-28T05:32:13.238Z,58.60
2018-08-28T05:32:51.112Z,62.40
2018-08-28T05:33:29.062Z,70.37
2018-08-28T05:34:07.521Z,65.30
2018-08-28T05:34:45.795Z,71.03
2018-08-28T05:35:23.731Z,59.87
2018-08-28T05:36:01.636Z,62.10
2018-08-28T05:36:40.526Z,61.07
2018-08-28T05:37:18.541Z,71.97
2018-08-28T05:37:56.442Z,66.87
2018-08-28T05:38:34.446Z,65.40
2018-08-28T05:39:12.541Z,65.53
2018-08-28T05:39:50.641Z,70.13
2018-08-28T05:40:29.619Z,61.73
2018-08-28T05:41:07.664Z,60.50
2018-08-28T05:41:45.542Z,57.53
2018-08-28T05:42:23.407Z,60.90
2018-08-28T05:43:01.299Z,60.40
2018-08-28T05:43:39.209Z,53.60
2018-08-28T05:44:17.923Z,63.90
2018-08-28T05:44:55.834Z,62.00
2018-08-28T05:45:33.960Z,56.77
2018-08-28T05:46:11.873Z,57.93
2018-08-28T05:46:49.789Z,49.43
2018-08-28T05:47:27.688Z,51.87
2018-08-28T05:48:05.714Z,67.97
2018-08-28T05:48:43.669Z,50.10
2018-08-28T05:49:21.535Z,57.47
2018-08-28T05:49:59.481Z,61.20
2018-08-28T05:50:37.434Z,51.73
2018-08-28T05:51:15.330Z,66.10
2018-08-28T05:51:53.349Z,63.97
2018-08-28T05:52:32.317Z,62.63
2018-08-28T05:53:10.287Z,65.20
2018-08-28T05:53:49.108Z,66.37
2018-08-28T05:54:27.109Z,60.47
2018-08-28T05:55:05.241Z,70.67
2018-08-28T05:55:43.187Z,65.90
2018-08-28T05:56:21.167Z,53.90
2018-08-28T05:56:59.429Z,59.60
2018-08-28T05:57:38.238Z,61.70
2018-08-28T05:58:17.028Z,63.83
2018-08-28T05:58:54.911Z,64.77
2018-08-28T05:59:32.908Z,77.40
2018-08-28T06:00:10.818Z,65.90
2018-08-28T06:00:48.692Z,79.77
2018-08-28T06:01:27.779Z,71.67
2018-08-28T06:02:05.975Z,64.83
2018-08-28T06:02:43.855Z,65.40
2018-08-28T06:03:22.050Z,69.07
2018-08-28T06:04:00.592Z,66.80
2018-08-28T06:04:38.500Z,69.80
2018-08-28T06:05:16.332Z,70.33
2018-08-28T06:05:54.386Z,74.60
2018-08-28T06:06:32.467Z,73.47
2018-08-28T06:07:11.628Z,75.33
2018-08-28T06:07:49.827Z,80.70
2018-08-28T06:08:27.953Z,67.60
2018-08-28T06:09:05.950Z,77.47
2018-08-28T06:09:43.770Z,66.93
2018-08-28T06:10:21.690Z,63.60
2018-08-28T06:10:59.800Z,61.97
2018-08-28T06:11:39.691Z,62.57
2018-08-28T06:12:17.695Z,64.83
2018-08-28T06:12:55.902Z,59.90
2018-08-28T06:13:34.455Z,63.70
2018-08-28T06:14:13.358Z,61.60
2018-08-28T06:14:52.170Z,65.27
2018-08-28T06:15:30.217Z,64.03
2018-08-28T06:16:08.263Z,69.30
2018-08-28T06:16:46.409Z,61.17
2018-08-28T06:17:24.326Z,62.83
2018-08-28T06:18:02.184Z,63.70
2018-08-28T06:18:40.173Z,58.93
2018-08-28T06:19:18.069Z,60.80
2018-08-28T06:19:55.912Z,71.60
2018-08-28T06:20:33.908Z,74.30
2018-08-28T06:21:11.745Z,75.90
2018-08-28T06:21:49.895Z,77.53
2018-08-28T06:22:28.061Z,71.77
2018-08-28T06:23:06.041Z,61.70
2018-08-28T06:23:44.183Z,57.80
2018-08-28T06:24:22.884Z,66.40
2018-08-28T06:25:00.876Z,58.40
2018-08-28T06:25:38.868Z,56.93
2018-08-28T06:26:16.905Z,65.03
2018-08-28T06:26:54.726Z,66.27
2018-08-28T06:27:33.580Z,67.93
2018-08-28T06:28:11.470Z,71.27
2018-08-28T06:28:49.505Z,66.30
2018-08-28T06:29:27.965Z,60.90
2018-08-28T06:30:06.084Z,53.70
2018-08-28T06:30:43.890Z,60.97
2018-08-28T06:31:22.022Z,67.73
2018-08-28T06:31:59.838Z,47.23
2018-08-28T06:32:37.721Z,49.40
2018-08-28T06:33:15.569Z,49.20
2018-08-28T06:33:53.638Z,41.50
2018-08-28T06:34:31.633Z,52.97
2018-08-28T06:35:10.965Z,56.50
2018-08-28T06:35:48.811Z,49.43
2018-08-28T06:36:26.680Z,58.93
2018-08-28T06:37:05.550Z,59.93
2018-08-28T06:37:43.465Z,68.27
2018-08-28T06:38:21.518Z,64.13
2018-08-28T06:38:59.429Z,55.20
2018-08-28T06:39:37.335Z,64.60
2018-08-28T06:40:15.290Z,61.40
2018-08-28T06:40:53.316Z,56.70
2018-08-28T06:41:31.415Z,58.73
2018-08-28T06:42:09.470Z,55.30
2018-08-28T06:42:47.409Z,56.80
2018-08-28T06:43:25.444Z,55.13
2018-08-28T06:44:03.516Z,56.90
2018-08-28T06:44:41.423Z,54.07
2018-08-28T06:45:19.359Z,57.03
2018-08-28T06:45:57.325Z,54.13
2018-08-28T06:46:35.525Z,53.67
2018-08-28T06:47:13.395Z,43.77
2018-08-28T06:47:51.335Z,46.73
2018-08-28T06:48:29.203Z,46.00
2018-08-28T06:49:07.212Z,43.90
2018-08-28T06:49:45.321Z,42.63
2018-08-28T06:50:23.571Z,58.93
2018-08-28T06:51:01.574Z,43.80
2018-08-28T06:51:39.620Z,50.37
2018-08-28T06:52:17.516Z,48.37
2018-08-28T06:52:55.561Z,43.50
2018-08-28T06:53:33.476Z,39.10
2018-08-28T06:54:11.364Z,40.93
2018-08-28T06:54:49.246Z,42.63
2018-08-28T06:55:30.544Z,44.93
2018-08-28T06:56:08.648Z,37.23
2018-08-28T06:56:46.692Z,39.53
2018-08-28T06:57:24.633Z,33.93
2018-08-28T06:58:02.507Z,35.43
2018-08-28T06:58:40.471Z,34.93
2018-08-28T06:59:20.351Z,35.37
2018-08-28T06:59:58.508Z,37.53
2018-08-28T07:00:36.279Z,40.80
2018-08-28T07:01:14.261Z,35.97
2018-08-28T07:01:52.215Z,38.60
2018-08-28T07:02:30.104Z,35.30
2018-08-28T07:03:09.146Z,36.30
2018-08-28T07:03:47.096Z,30.43
2018-08-28T07:04:25.015Z,32.57
2018-08-28T07:05:03.468Z,36.37
2018-08-28T07:05:41.568Z,34.43
2018-08-28T07:06:19.369Z,30.00
2018-08-28T07:06:57.361Z,32.07
2018-08-28T07:07:35.353Z,28.93
2018-08-28T07:08:13.248Z,38.00
2018-08-28T07:08:51.180Z,31.57
2018-08-28T07:09:29.070Z,35.00
2018-08-28T07:10:07.209Z,31.90
2018-08-28T07:10:45.088Z,28.53
2018-08-28T07:11:23.132Z,31.70
2018-08-28T07:12:01.011Z,33.20
2018-08-28T07:12:38.928Z,35.90
2018-08-28T07:13:17.532Z,26.00
2018-08-28T07:13:55.645Z,29.20
2018-08-28T07:14:33.993Z,35.30
2018-08-28T07:15:11.953Z,31.27
2018-08-28T07:15:49.880Z,23.43
2018-08-28T07:16:27.832Z,22.90
2018-08-28T07:17:05.746Z,27.70
2018-08-28T07:17:43.670Z,22.03
2018-08-28T07:18:21.886Z,25.70
2018-08-28T07:19:00.104Z,27.13
2018-08-28T07:19:38.124Z,22.37
2018-08-28T07:20:17.025Z,23.18
2018-08-28T07:20:54.903Z,23.57
2018-08-28T07:21:32.965Z,23.40
2018-08-28T07:22:11.022Z,19.97
2018-08-28T07:22:49.049Z,25.33
2018-08-28T07:23:26.912Z,23.17
2018-08-28T07:24:04.869Z,26.43
2018-08-28T07:24:42.810Z,27.20
2018-08-28T07:25:20.722Z,26.57
2018-08-28T07:25:58.761Z,26.10
2018-08-28T07:26:37.545Z,31.80
2018-08-28T07:27:15.440Z,24.87
2018-08-28T07:27:53.489Z,23.80
2018-08-28T07:28:31.440Z,24.97
2018-08-28T07:29:09.389Z,37.57
2018-08-28T07:29:47.360Z,22.33
2018-08-28T07:30:25.305Z,24.03
2018-08-28T07:31:03.304Z,22.43
2018-08-28T07:31:41.371Z,22.00
2018-08-28T07:32:19.237Z,27.50
2018-08-28T07:32:57.222Z,25.43
2018-08-28T07:33:35.014Z,33.17
2018-08-28T07:34:12.951Z,26.03
2018-08-28T07:34:50.751Z,27.17
2018-08-28T07:35:29.025Z,31.07
2018-08-28T07:36:07.153Z,29.60
2018-08-28T07:36:45.108Z,28.73
2018-08-28T07:37:23.090Z,21.60
2018-08-28T07:38:01.047Z,24.37
2018-08-28T07:38:39.137Z,23.00
2018-08-28T07:39:17.067Z,24.70
2018-08-28T07:39:55.045Z,21.37
2018-08-28T07:40:32.904Z,29.50
2018-08-28T07:41:11.035Z,24.30
2018-08-28T07:41:49.201Z,20.63
2018-08-28T07:42:27.147Z,30.10
2018-08-28T07:43:05.227Z,30.00
2018-08-28T07:43:43.105Z,21.07
2018-08-28T07:44:20.912Z,26.10
2018-08-28T07:44:59.030Z,19.90
2018-08-28T07:45:36.945Z,22.57
2018-08-28T07:46:14.941Z,26.50
2018-08-28T07:46:52.865Z,20.47
2018-08-28T07:47:30.845Z,24.40
2018-08-28T07:48:09.106Z,25.27
2018-08-28T07:48:47.092Z,26.80
2018-08-28T07:49:25.098Z,20.20
2018-08-28T07:50:02.943Z,22.53
2018-08-28T07:50:40.858Z,30.33
2018-08-28T07:51:18.775Z,23.83
2018-08-28T07:51:56.694Z,24.67
2018-08-28T07:52:34.724Z,22.83
2018-08-28T07:53:12.593Z,21.23
2018-08-28T07:53:50.651Z,19.70
2018-08-28T07:54:28.890Z,24.33
2018-08-28T07:55:06.772Z,21.23
2018-08-28T07:55:45.740Z,21.90
2018-08-28T07:56:23.706Z,21.90
2018-08-28T07:57:01.747Z,20.40
2018-08-28T07:57:40.253Z,18.87
2018-08-28T07:58:18.615Z,22.53
2018-08-28T07:58:56.458Z,19.10
2018-08-28T07:59:34.475Z,18.50
2018-08-28T08:00:12.497Z,22.07
2018-08-28T08:00:50.696Z,24.67
2018-08-28T08:01:28.736Z,18.27
2018-08-28T08:02:08.117Z,22.53
2018-08-28T08:02:46.003Z,25.27
2018-08-28T08:03:26.522Z,21.07
2018-08-28T08:04:04.460Z,22.23
2018-08-28T08:04:42.373Z,28.87
2018-08-28T08:05:20.432Z,23.40
2018-08-28T08:05:58.783Z,29.93
2018-08-28T08:06:36.595Z,20.20
2018-08-28T08:07:14.660Z,23.97
2018-08-28T08:07:52.611Z,25.43
2018-08-28T08:08:30.551Z,19.33
2018-08-28T08:09:10.700Z,19.70
2018-08-28T08:09:48.744Z,22.57
2018-08-28T08:10:26.828Z,22.83
2018-08-28T08:11:04.789Z,20.40
2018-08-28T08:11:42.833Z,22.97
2018-08-28T08:12:21.296Z,27.00
2018-08-28T08:12:59.165Z,20.73
2018-08-28T08:13:37.168Z,29.37
2018-08-28T08:14:15.863Z,23.40
2018-08-28T08:14:53.800Z,24.10
2018-08-28T08:15:33.217Z,19.80
2018-08-28T08:16:11.326Z,20.90
2018-08-28T08:16:49.274Z,22.67
2018-08-28T08:17:27.201Z,21.87
2018-08-28T08:18:05.197Z,18.83
2018-08-28T08:18:43.115Z,19.93